createdAt,value
2018-04-13T00:00:58.221Z,8.40
2018-04-13T00:03:25.737Z,8.30
2018-04-13T00:05:53.296Z,8.30
2018-04-13T00:08:20.820Z,8.20
2018-04-13T00:10:49.125Z,8.10
2018-04-13T00:13:16.688Z,8.10
2018-04-13T00:15:44.247Z,8.10
2018-04-13T00:18:12.521Z,8.00
2018-04-13T00:20:40.076Z,8.00
2018-04-13T00:23:07.632Z,8.00
2018-04-13T00:25:35.181Z,7.90
2018-04-13T00:28:02.744Z,7.80
2018-04-13T00:30:30.288Z,7.80
2018-04-13T00:32:58.601Z,7.80
2018-04-13T00:35:26.129Z,7.80
2018-04-13T00:37:54.444Z,7.60
2018-04-13T00:40:22.739Z,7.60
2018-04-13T00:42:51.063Z,7.60
2018-04-13T00:45:18.576Z,7.60
2018-04-13T00:47:46.111Z,7.70
2018-04-13T00:50:13.640Z,7.70
2018-04-13T00:52:41.959Z,7.60
2018-04-13T00:55:09.477Z,7.60
2018-04-13T00:57:37.004Z,7.60
2018-04-13T01:00:04.529Z,7.60
2018-04-13T01:02:32.095Z,7.60
2018-04-13T01:04:59.640Z,7.60
2018-04-13T01:07:27.668Z,7.50
2018-04-13T01:09:55.963Z,7.40
2018-04-13T01:12:24.248Z,7.40
2018-04-13T01:14:52.532Z,7.40
2018-04-13T01:17:20.850Z,7.50
2018-04-13T01:19:48.385Z,7.40
2018-04-13T01:22:15.961Z,7.50
2018-04-13T01:24:44.296Z,7.30
2018-04-13T01:27:11.871Z,7.30
2018-04-13T01:29:39.407Z,7.20
2018-04-13T01:32:07.712Z,7.30
2018-04-13T01:34:35.238Z,7.30
2018-04-13T01:37:02.799Z,7.30
2018-04-13T01:39:30.377Z,7.30
2018-04-13T01:41:57.906Z,7.20
2018-04-13T01:44:25.443Z,7.10
2018-04-13T01:46:53.727Z,7.10
2018-04-13T01:49:22.050Z,7.10
2018-04-13T01:51:49.551Z,7.00
2018-04-13T01:54:17.079Z,7.00
2018-04-13T01:56:45.362Z,6.80
2018-04-13T01:59:13.657Z,6.90
2018-04-13T02:01:41.946Z,6.80
2018-04-13T02:04:10.247Z,6.80
2018-04-13T02:06:37.932Z,6.80
2018-04-13T02:09:06.215Z,6.90
2018-04-13T02:11:33.735Z,6.80
2018-04-13T02:14:01.271Z,6.80
2018-04-13T02:16:28.784Z,6.80
2018-04-13T02:18:56.384Z,6.80
2018-04-13T02:21:23.870Z,6.70
2018-04-13T02:23:51.391Z,6.70
2018-04-13T02:26:18.899Z,6.60
2018-04-13T02:28:47.191Z,6.60
2018-04-13T02:31:15.469Z,6.60
2018-04-13T02:33:43.764Z,6.50
2018-04-13T02:36:12.059Z,6.50
2018-04-13T02:38:40.372Z,6.40
2018-04-13T02:41:07.928Z,6.30
2018-04-13T02:43:35.443Z,6.30
2018-04-13T02:46:02.951Z,6.30
2018-04-13T02:48:31.254Z,6.40
2018-04-13T02:50:59.569Z,6.30
2018-04-13T02:53:27.106Z,6.30
2018-04-13T02:55:55.410Z,6.10
2018-04-13T02:58:22.919Z,6.10
2018-04-13T03:00:50.461Z,6.10
2018-04-13T03:03:17.963Z,6.10
2018-04-13T03:05:45.496Z,6.10
2018-04-13T03:08:13.004Z,6.00
2018-04-13T03:10:40.547Z,6.00
2018-04-13T03:13:08.794Z,6.00
2018-04-13T03:15:36.399Z,6.00
2018-04-13T03:18:03.902Z,6.10
2018-04-13T03:20:31.430Z,6.00
2018-04-13T03:22:59.727Z,6.10
2018-04-13T03:25:27.645Z,6.10
2018-04-13T03:27:55.203Z,6.20
2018-04-13T03:30:22.736Z,6.20
2018-04-13T03:32:51.026Z,6.30
2018-04-13T03:35:19.347Z,6.30
2018-04-13T03:37:46.857Z,6.30
2018-04-13T03:40:14.394Z,6.40
2018-04-13T03:42:41.933Z,6.60
2018-04-13T03:45:10.233Z,6.80
2018-04-13T03:47:38.523Z,7.10
2018-04-13T03:50:06.821Z,7.30
2018-04-13T03:52:34.326Z,7.30
2018-04-13T03:55:01.854Z,7.50
2018-04-13T03:57:30.164Z,7.80
2018-04-13T03:59:57.720Z,7.80
2018-04-13T04:02:25.260Z,7.90
2018-04-13T04:04:52.805Z,8.00
2018-04-13T04:07:20.348Z,8.00
2018-04-13T04:09:47.865Z,8.10
2018-04-13T04:12:15.420Z,8.10
2018-04-13T04:14:42.985Z,8.10
2018-04-13T04:17:10.546Z,8.10
2018-04-13T04:19:53.870Z,8.10
2018-04-13T04:22:33.200Z,8.10
2018-04-13T04:25:13.609Z,8.10
2018-04-13T04:27:41.168Z,8.10
2018-04-13T04:30:08.722Z,8.10
2018-04-13T04:32:37.147Z,8.00
2018-04-13T04:35:04.797Z,8.00
2018-04-13T04:37:32.509Z,8.00
2018-04-13T04:40:00.108Z,8.10
2018-04-13T04:42:27.750Z,8.10
2018-04-13T04:44:55.298Z,8.10
2018-04-13T04:47:22.824Z,8.10
2018-04-13T04:49:50.442Z,8.10
2018-04-13T04:52:18.042Z,8.00
2018-04-13T04:54:45.596Z,7.90
2018-04-13T04:57:13.125Z,7.90
2018-04-13T04:59:40.697Z,7.80
2018-04-13T05:02:08.194Z,7.90
2018-04-13T05:04:36.488Z,8.00
2018-04-13T05:07:04.020Z,8.00
2018-04-13T05:09:31.676Z,8.00
2018-04-13T05:11:59.293Z,8.00
2018-04-13T05:14:27.019Z,8.00
2018-04-13T05:16:54.529Z,8.00
2018-04-13T05:19:22.060Z,8.10
2018-04-13T05:21:49.594Z,8.20
2018-04-13T05:24:17.964Z,8.50
2018-04-13T05:26:46.254Z,8.60
2018-04-13T05:29:13.819Z,8.60
2018-04-13T05:31:41.335Z,8.70
2018-04-13T05:34:08.906Z,8.80
2018-04-13T05:36:36.500Z,8.70
2018-04-13T05:39:04.045Z,8.60
2018-04-13T05:41:31.658Z,8.60
2018-04-13T05:43:59.205Z,8.60
2018-04-13T05:46:26.733Z,8.70
2018-04-13T05:48:55.080Z,8.70
2018-04-13T05:51:22.605Z,8.70
2018-04-13T05:53:50.908Z,8.90
2018-04-13T05:56:18.420Z,8.90
2018-04-13T05:58:45.941Z,9.10
2018-04-13T06:01:14.257Z,9.20
2018-04-13T06:03:41.777Z,9.20
2018-04-13T06:06:10.109Z,9.40
2018-04-13T06:08:37.681Z,9.40
2018-04-13T06:11:05.222Z,9.50
2018-04-13T06:13:33.540Z,9.50
2018-04-13T06:16:01.125Z,9.50
2018-04-13T06:18:28.695Z,9.60
2018-04-13T06:20:56.243Z,9.40
2018-04-13T06:23:24.561Z,9.60
2018-04-13T06:25:52.130Z,9.50
2018-04-13T06:28:19.646Z,9.70
2018-04-13T06:30:47.183Z,9.80
2018-04-13T06:33:14.732Z,9.90
2018-04-13T06:35:42.273Z,10.10
2018-04-13T06:38:11.304Z,10.30
2018-04-13T06:40:38.902Z,10.30
2018-04-13T06:43:06.596Z,10.50
2018-04-13T06:45:34.346Z,10.70
2018-04-13T06:48:01.913Z,10.70
2018-04-13T06:50:29.490Z,10.80
2018-04-13T06:52:57.013Z,11.10
2018-04-13T06:55:24.543Z,11.40
2018-04-13T06:57:52.053Z,11.50
2018-04-13T07:00:19.577Z,11.80
2018-04-13T07:02:47.136Z,12.00
2018-04-13T07:05:14.757Z,12.00
2018-04-13T07:07:42.356Z,12.20
2018-04-13T07:10:10.690Z,12.90
2018-04-13T07:12:38.251Z,12.90
2018-04-13T07:15:05.826Z,13.10
2018-04-13T07:17:33.362Z,13.30
2018-04-13T07:20:00.972Z,13.50
2018-04-13T07:22:28.517Z,13.90
2018-04-13T07:24:56.873Z,14.20
2018-04-13T07:27:24.400Z,14.20
2018-04-13T07:29:51.927Z,15.10
2018-04-13T07:32:19.502Z,15.50
2018-04-13T07:34:47.067Z,15.60
2018-04-13T07:37:14.601Z,16.30
2018-04-13T07:39:42.419Z,16.80
2018-04-13T07:42:10.652Z,16.50
2018-04-13T07:44:38.206Z,16.50
2018-04-13T07:47:06.506Z,16.20
2018-04-13T07:49:34.230Z,16.20
2018-04-13T07:52:01.705Z,16.40
2018-04-13T07:54:29.336Z,16.40
2018-04-13T07:56:56.878Z,16.50
2018-04-13T07:59:24.835Z,16.60
2018-04-13T08:01:53.266Z,17.20
2018-04-13T08:04:20.325Z,17.20
2018-04-13T08:06:48.648Z,17.30
2018-04-13T08:09:16.301Z,17.20
2018-04-13T08:11:43.873Z,17.50
2018-04-13T08:14:11.485Z,17.30
2018-04-13T08:16:39.028Z,17.20
2018-04-13T08:19:06.599Z,17.30
2018-04-13T08:21:34.135Z,17.30
2018-04-13T08:24:01.738Z,17.30
2018-04-13T08:26:29.244Z,17.40
2018-04-13T08:28:56.785Z,17.90
2018-04-13T08:31:24.335Z,18.10
2018-04-13T08:33:52.629Z,17.40
2018-04-13T08:36:20.920Z,17.00
2018-04-13T08:38:49.359Z,16.80
2018-04-13T08:41:17.581Z,16.60
2018-04-13T08:43:45.248Z,16.60
2018-04-13T08:46:13.600Z,16.50
2018-04-13T08:48:41.224Z,16.40
2018-04-13T08:51:08.696Z,16.50
2018-04-13T08:53:37.007Z,16.30
2018-04-13T08:56:04.531Z,16.30
2018-04-13T08:58:32.075Z,16.20
2018-04-13T09:00:59.630Z,16.30
2018-04-13T09:03:27.177Z,16.30
2018-04-13T09:05:54.698Z,16.30
2018-04-13T09:08:22.239Z,16.60
2018-04-13T09:10:49.750Z,16.60
2018-04-13T09:13:17.294Z,16.70
2018-04-13T09:15:44.824Z,16.90
2018-04-13T09:18:13.098Z,17.30
2018-04-13T09:20:40.639Z,17.20
2018-04-13T09:23:08.353Z,17.30
2018-04-13T09:25:35.890Z,17.50
2018-04-13T09:28:03.401Z,17.60
2018-04-13T09:30:31.710Z,18.40
2018-04-13T09:33:00.053Z,18.50
2018-04-13T09:35:27.613Z,18.50
2018-04-13T09:37:55.176Z,18.70
2018-04-13T09:40:23.239Z,19.00
2018-04-13T09:42:50.758Z,19.20
2018-04-13T09:45:18.357Z,19.50
2018-04-13T09:47:46.624Z,19.00
2018-04-13T09:50:14.161Z,19.00
2018-04-13T09:52:41.689Z,18.80
2018-04-13T09:55:10.006Z,19.30
2018-04-13T09:57:37.517Z,19.20
2018-04-13T10:00:05.070Z,19.00
2018-04-13T10:02:38.465Z,19.20
2018-04-13T10:05:11.743Z,19.10
2018-04-13T10:07:40.036Z,18.70
2018-04-13T10:10:08.338Z,18.50
2018-04-13T10:12:35.867Z,18.50
2018-04-13T10:15:03.425Z,18.10
2018-04-13T10:17:30.958Z,17.70
2018-04-13T10:19:58.511Z,17.40
2018-04-13T10:22:26.840Z,17.50
2018-04-13T10:24:54.394Z,17.50
2018-04-13T10:27:21.957Z,17.50
2018-04-13T10:29:49.465Z,17.30
2018-04-13T10:32:17.162Z,17.30
2018-04-13T10:34:44.703Z,17.30
2018-04-13T10:37:12.244Z,17.20
2018-04-13T10:39:39.789Z,17.10
2018-04-13T10:42:08.107Z,17.20
2018-04-13T10:44:35.672Z,17.10
2018-04-13T10:47:03.250Z,17.30
2018-04-13T10:49:30.832Z,17.30
2018-04-13T10:51:58.529Z,17.50
2018-04-13T10:54:26.125Z,17.30
2018-04-13T10:56:53.680Z,17.40
2018-04-13T10:59:21.208Z,17.30
2018-04-13T11:01:49.547Z,17.10
2018-04-13T11:04:17.058Z,17.10
2018-04-13T11:06:44.652Z,17.20
2018-04-13T11:09:12.544Z,17.10
2018-04-13T11:11:40.081Z,17.10
2018-04-13T11:14:08.390Z,17.10
2018-04-13T11:16:38.751Z,17.10
2018-04-13T11:19:06.271Z,17.10
2018-04-13T11:21:33.860Z,17.40
2018-04-13T11:24:02.160Z,18.00
2018-04-13T11:26:29.733Z,18.00
2018-04-13T11:28:57.315Z,18.10
2018-04-13T11:31:24.813Z,18.30
2018-04-13T11:33:52.332Z,18.50
2018-04-13T11:36:20.613Z,18.50
2018-04-13T11:38:48.177Z,18.40
2018-04-13T11:41:15.689Z,18.10
2018-04-13T11:43:43.362Z,18.10
2018-04-13T11:46:10.926Z,18.10
2018-04-13T11:48:38.586Z,17.90
2018-04-13T11:51:06.126Z,17.90
2018-04-13T11:53:33.749Z,17.90
2018-04-13T11:56:01.301Z,17.90
2018-04-13T11:58:29.612Z,18.70
2018-04-13T12:00:57.116Z,18.60
2018-04-13T12:03:25.277Z,18.90
2018-04-13T12:05:52.817Z,19.20
2018-04-13T12:08:21.193Z,19.40
2018-04-13T12:10:48.742Z,19.40
2018-04-13T12:13:16.323Z,19.80
2018-04-13T12:15:43.909Z,19.90
2018-04-13T12:18:11.462Z,20.60
2018-04-13T12:20:38.970Z,20.40
2018-04-13T12:23:07.316Z,20.20
2018-04-13T12:25:34.903Z,20.20
2018-04-13T12:28:02.435Z,20.00
2018-04-13T12:30:29.977Z,20.30
2018-04-13T12:32:58.385Z,21.30
2018-04-13T12:35:26.406Z,21.20
2018-04-13T12:37:53.935Z,20.90
2018-04-13T12:40:22.337Z,21.10
2018-04-13T12:42:49.840Z,21.10
2018-04-13T12:45:17.426Z,21.20
2018-04-13T12:47:44.901Z,20.90
2018-04-13T12:50:12.452Z,20.40
2018-04-13T12:52:39.951Z,19.90
2018-04-13T12:55:07.739Z,20.00
2018-04-13T12:57:35.011Z,19.90
2018-04-13T13:00:03.301Z,19.50
2018-04-13T13:02:31.565Z,19.30
2018-04-13T13:04:59.126Z,19.30
2018-04-13T13:07:26.628Z,18.80
2018-04-13T13:09:54.217Z,18.80
2018-04-13T13:12:22.490Z,18.80
2018-04-13T13:14:50.781Z,19.00
2018-04-13T13:17:19.044Z,19.50
2018-04-13T13:19:46.572Z,19.50
2018-04-13T13:22:14.097Z,19.70
2018-04-13T13:24:41.628Z,19.80
2018-04-13T13:27:09.177Z,19.50
2018-04-13T13:29:36.741Z,19.60
2018-04-13T13:32:04.304Z,19.40
2018-04-13T13:34:32.585Z,19.50
2018-04-13T13:37:00.186Z,19.50
2018-04-13T13:39:27.693Z,19.50
2018-04-13T13:41:55.235Z,19.10
2018-04-13T13:44:22.756Z,18.70
2018-04-13T13:46:51.804Z,18.50
2018-04-13T13:49:19.473Z,18.50
2018-04-13T13:51:47.034Z,18.40
2018-04-13T13:54:15.349Z,18.30
2018-04-13T13:56:42.864Z,18.30
2018-04-13T13:59:10.426Z,18.00
2018-04-13T14:01:37.948Z,18.10
2018-04-13T14:04:05.522Z,18.30
2018-04-13T14:06:33.849Z,18.70
2018-04-13T14:09:01.456Z,18.70
2018-04-13T14:11:29.043Z,18.90
2018-04-13T14:13:57.316Z,19.10
2018-04-13T14:16:24.941Z,19.00
2018-04-13T14:18:52.476Z,18.80
2018-04-13T14:21:20.772Z,18.50
2018-04-13T14:23:49.079Z,18.30
2018-04-13T14:26:16.581Z,18.20
2018-04-13T14:28:44.128Z,18.20
2018-04-13T14:31:11.695Z,18.20
2018-04-13T14:33:39.287Z,18.10
2018-04-13T14:36:06.801Z,17.80
2018-04-13T14:38:34.434Z,17.60
2018-04-13T14:41:01.933Z,17.80
2018-04-13T14:43:29.466Z,17.80
2018-04-13T14:45:57.044Z,18.00
2018-04-13T14:48:24.570Z,18.00
2018-04-13T14:50:52.889Z,17.80
2018-04-13T14:53:21.208Z,17.80
2018-04-13T14:55:48.730Z,17.80
2018-04-13T14:58:17.090Z,17.80
2018-04-13T15:00:44.627Z,17.70
2018-04-13T15:03:12.156Z,17.70
2018-04-13T15:05:39.695Z,17.50
2018-04-13T15:08:07.298Z,17.50
2018-04-13T15:10:34.883Z,17.40
2018-04-13T15:13:03.168Z,17.20
2018-04-13T15:15:31.474Z,17.10
2018-04-13T15:17:59.039Z,17.10
2018-04-13T15:20:26.594Z,16.90
2018-04-13T15:22:54.889Z,16.60
2018-04-13T15:25:22.430Z,16.60
2018-04-13T15:27:49.973Z,16.50
2018-04-13T15:30:17.554Z,16.30
2018-04-13T15:32:45.094Z,16.30
2018-04-13T15:35:12.637Z,16.30
2018-04-13T15:37:40.164Z,16.40
2018-04-13T15:40:07.693Z,16.50
2018-04-13T15:42:35.220Z,16.50
2018-04-13T15:45:02.762Z,16.60
2018-04-13T15:47:30.274Z,16.70
2018-04-13T15:49:57.804Z,16.60
2018-04-13T15:52:25.321Z,16.60
2018-04-13T15:54:52.844Z,16.50
2018-04-13T15:57:20.347Z,16.50
2018-04-13T15:59:47.870Z,16.30
2018-04-13T16:02:16.140Z,16.20
2018-04-13T16:04:43.661Z,16.20
2018-04-13T16:07:11.164Z,16.20
2018-04-13T16:09:38.697Z,16.10
2018-04-13T16:12:06.285Z,16.00
2018-04-13T16:14:34.012Z,16.10
2018-04-13T16:17:02.292Z,15.90
2018-04-13T16:19:29.817Z,15.80
2018-04-13T16:21:57.342Z,15.80
2018-04-13T16:24:25.673Z,15.70
2018-04-13T16:26:53.186Z,15.70
2018-04-13T16:29:20.698Z,15.70
2018-04-13T16:31:48.220Z,15.60
2018-04-13T16:34:15.733Z,15.60
2018-04-13T16:36:43.274Z,15.70
2018-04-13T16:39:10.779Z,15.70
2018-04-13T16:41:38.306Z,15.70
2018-04-13T16:44:05.825Z,15.70
2018-04-13T16:46:33.357Z,15.70
2018-04-13T16:49:00.857Z,15.70
2018-04-13T16:51:29.254Z,15.70
2018-04-13T16:53:56.802Z,15.70
2018-04-13T16:56:25.112Z,15.70
2018-04-13T16:58:52.626Z,15.60
2018-04-13T17:01:20.181Z,15.60
2018-04-13T17:03:47.690Z,15.60
2018-04-13T17:06:15.221Z,15.50
2018-04-13T17:08:42.731Z,15.40
2018-04-13T17:11:10.270Z,15.40
2018-04-13T17:13:37.816Z,15.30
2018-04-13T17:16:05.354Z,15.20
2018-04-13T17:18:32.878Z,15.10
2018-04-13T17:21:00.401Z,15.00
2018-04-13T17:23:28.668Z,14.90
2018-04-13T17:25:56.187Z,14.90
2018-04-13T17:28:23.748Z,14.90
2018-04-13T17:30:52.148Z,14.80
2018-04-13T17:33:19.719Z,14.70
2018-04-13T17:35:47.238Z,14.70
2018-04-13T17:38:14.767Z,14.60
2018-04-13T17:40:42.278Z,14.60
2018-04-13T17:43:09.853Z,14.50
2018-04-13T17:45:37.382Z,14.50
2018-04-13T17:48:04.905Z,14.50
2018-04-13T17:50:32.443Z,14.40
2018-04-13T17:53:00.040Z,14.40
2018-04-13T17:55:27.555Z,14.30
2018-04-13T17:57:55.880Z,14.20
2018-04-13T18:00:23.396Z,14.20
2018-04-13T18:02:50.946Z,14.10
2018-04-13T18:05:18.522Z,14.10
2018-04-13T18:07:46.054Z,14.00
2018-04-13T18:10:13.584Z,14.00
2018-04-13T18:12:41.923Z,13.90
2018-04-13T18:15:09.454Z,13.80
2018-04-13T18:17:37.762Z,13.70
2018-04-13T18:20:05.301Z,13.70
2018-04-13T18:22:32.876Z,13.70
2018-04-13T18:25:00.403Z,13.60
2018-04-13T18:27:27.983Z,13.60
2018-04-13T18:29:55.497Z,13.50
2018-04-13T18:32:23.822Z,13.40
2018-04-13T18:34:51.369Z,13.40
2018-04-13T18:37:18.903Z,13.40
2018-04-13T18:39:46.456Z,13.40
2018-04-13T18:42:14.014Z,13.30
2018-04-13T18:44:41.568Z,13.30
2018-04-13T18:47:09.108Z,13.30
2018-04-13T18:49:36.654Z,13.20
2018-04-13T18:52:04.276Z,13.20
2018-04-13T18:54:32.568Z,13.20
2018-04-13T18:57:00.855Z,13.20
2018-04-13T18:59:29.188Z,13.20
2018-04-13T19:01:56.737Z,13.20
2018-04-13T19:04:24.282Z,13.20
2018-04-13T19:06:52.588Z,13.20
2018-04-13T19:09:20.144Z,13.20
2018-04-13T19:11:47.670Z,13.20
2018-04-13T19:14:15.228Z,13.20
2018-04-13T19:16:42.771Z,13.20
2018-04-13T19:19:11.128Z,13.30
2018-04-13T19:21:38.662Z,13.30
2018-04-13T19:24:06.256Z,13.30
2018-04-13T19:26:33.804Z,13.30
2018-04-13T19:29:01.379Z,13.30
2018-04-13T19:31:28.964Z,13.30
2018-04-13T19:33:56.533Z,13.40
2018-04-13T19:36:24.088Z,13.30
2018-04-13T19:38:51.600Z,13.30
2018-04-13T19:41:19.154Z,13.30
2018-04-13T19:43:46.675Z,13.20
2018-04-13T19:46:14.246Z,13.20
2018-04-13T19:48:41.780Z,13.20
2018-04-13T19:51:09.348Z,13.20
2018-04-13T19:53:36.876Z,13.20
2018-04-13T19:56:04.478Z,13.20
2018-04-13T19:58:32.904Z,13.10
2018-04-13T20:01:01.289Z,13.00
2018-04-13T20:03:28.844Z,13.00
2018-04-13T20:05:56.548Z,13.00
2018-04-13T20:08:24.108Z,12.90
2018-04-13T20:10:51.661Z,12.90
2018-04-13T20:13:19.207Z,12.80
2018-04-13T20:15:46.769Z,12.80
2018-04-13T20:18:14.306Z,12.80
2018-04-13T20:20:41.872Z,12.80
2018-04-13T20:23:09.395Z,12.80
2018-04-13T20:25:36.940Z,12.70
2018-04-13T20:28:05.280Z,12.70
2018-04-13T20:30:32.856Z,12.70
2018-04-13T20:33:00.382Z,12.70
2018-04-13T20:35:27.948Z,12.60
2018-04-13T20:37:56.241Z,12.50
2018-04-13T20:40:24.578Z,12.50
2018-04-13T20:42:52.136Z,12.40
2018-04-13T20:45:19.661Z,12.40
2018-04-13T20:47:47.233Z,12.40
2018-04-13T20:50:14.759Z,12.40
2018-04-13T20:52:42.335Z,12.40
2018-04-13T20:55:09.877Z,12.30
2018-04-13T20:57:37.436Z,12.30
2018-04-13T21:00:05.740Z,12.30
2018-04-13T21:02:33.302Z,12.30
2018-04-13T21:05:00.904Z,12.30
2018-04-13T21:07:28.535Z,12.30
2018-04-13T21:09:56.039Z,12.30
2018-04-13T21:12:23.576Z,12.20
2018-04-13T21:14:51.873Z,12.20
2018-04-13T21:17:20.196Z,12.20
2018-04-13T21:19:47.715Z,12.10
2018-04-13T21:22:16.020Z,12.10
2018-04-13T21:24:44.393Z,12.10
2018-04-13T21:27:11.902Z,12.10
2018-04-13T21:29:39.425Z,12.10
2018-04-13T21:32:06.961Z,12.00
2018-04-13T21:34:34.487Z,12.00
2018-04-13T21:37:02.063Z,11.90
2018-04-13T21:39:30.376Z,11.90
2018-04-13T21:41:57.926Z,11.80
2018-04-13T21:44:26.249Z,11.80
2018-04-13T21:46:53.796Z,11.70
2018-04-13T21:49:22.117Z,11.60
2018-04-13T21:51:49.624Z,11.60
2018-04-13T21:54:17.167Z,11.60
2018-04-13T21:56:44.704Z,11.60
2018-04-13T21:59:12.230Z,11.50
2018-04-13T22:01:39.812Z,11.40
2018-04-13T22:04:07.342Z,11.40
2018-04-13T22:06:34.849Z,11.30
2018-04-13T22:09:02.446Z,11.30
2018-04-13T22:11:30.877Z,11.10
2018-04-13T22:16:59.887Z,11.10
2018-04-13T22:19:28.213Z,10.90
2018-04-13T22:21:56.617Z,10.90
2018-04-13T22:24:24.144Z,10.80
2018-04-13T22:26:52.423Z,10.70
2018-04-13T22:29:20.026Z,10.70
2018-04-13T22:31:47.568Z,10.70
2018-04-13T22:34:15.125Z,10.60
2018-04-13T22:36:42.677Z,10.60
2018-04-13T22:39:10.262Z,10.60
2018-04-13T22:41:37.797Z,10.60
2018-04-13T22:44:06.004Z,10.50
2018-04-13T22:46:33.525Z,10.50
2018-04-13T22:49:01.845Z,10.40
2018-04-13T22:51:29.510Z,10.40
2018-04-13T22:53:57.087Z,10.40
2018-04-13T22:56:24.629Z,10.30
2018-04-13T22:58:52.986Z,10.30
2018-04-13T23:01:20.536Z,10.30
2018-04-13T23:03:48.056Z,10.20
2018-04-13T23:06:25.928Z,10.20
2018-04-13T23:08:53.438Z,10.20
2018-04-13T23:11:22.089Z,10.10
2018-04-13T23:13:49.637Z,10.10
2018-04-13T23:16:17.177Z,10.00
2018-04-13T23:18:44.717Z,10.00
2018-04-13T23:21:12.273Z,9.90
2018-04-13T23:23:39.793Z,9.90
2018-04-13T23:26:07.320Z,9.90
2018-04-13T23:28:34.842Z,9.80
2018-04-13T23:31:03.145Z,9.80
2018-04-13T23:33:31.416Z,9.80
2018-04-13T23:35:58.950Z,9.80
2018-04-13T23:38:26.466Z,9.80
2018-04-13T23:40:54.760Z,9.80
2018-04-13T23:43:23.078Z,9.80
2018-04-13T23:45:50.604Z,9.80
2018-04-13T23:48:18.125Z,9.90
2018-04-13T23:50:45.673Z,10.00
2018-04-13T23:53:13.962Z,10.00
2018-04-13T23:55:42.261Z,9.90
2018-04-13T23:58:09.811Z,9.90
